Time;durP1;ratioP1;P1;durP2;ratioP2;P2;SDS_P1;SDS_P2;PMS_P1;PMS_P2;Temp;Humidity;BMP_temperature;BMP_pressure;BME280_temperature;BME280_humidity;BME280_pressure;Samples;Min_cycle;Max_cycle;Signal;HPM_P1;HPM_P2
2021/09/25 00:00:45;;;;;;;;;;;23.20;49.70;;;;;;1591210;74;1129;-69
2021/09/25 00:02:46;;;;;;;;;;;23.20;49.70;;;;;;1591055;74;651;-69
2021/09/25 00:04:48;;;;;;;;;;;23.20;49.60;;;;;;1593184;74;705;-69
2021/09/25 00:06:50;;;;;;;;;;;23.20;49.70;;;;;;1590478;74;658;-69
2021/09/25 00:08:52;;;;;;;;;;;23.20;49.70;;;;;;1590644;74;1163;-69
2021/09/25 00:10:54;;;;;;;;;;;23.20;49.70;;;;;;1590712;74;1915;-68
2021/09/25 00:12:56;;;;;;;;;;;23.20;49.70;;;;;;1589287;74;662;-67
2021/09/25 00:14:58;;;;;;;;;;;23.20;49.80;;;;;;1590739;74;738;-68
2021/09/25 00:17:00;;;;;;;;;;;23.20;49.80;;;;;;1590736;74;726;-68
2021/09/25 00:19:02;;;;;;;;;;;23.20;49.90;;;;;;1590644;74;1173;-68
2021/09/25 00:21:04;;;;;;;;;;;23.20;49.90;;;;;;1591638;74;718;-68
2021/09/25 00:23:06;;;;;;;;;;;23.20;49.90;;;;;;1591022;74;762;-68
2021/09/25 00:25:08;;;;;;;;;;;23.20;49.90;;;;;;1591504;74;683;-68
2021/09/25 00:27:10;;;;;;;;;;;23.20;49.90;;;;;;1592006;74;699;-67
2021/09/25 00:29:12;;;;;;;;;;;23.20;49.90;;;;;;1590534;74;1219;-67
2021/09/25 00:31:14;;;;;;;;;;;23.30;50.00;;;;;;1590589;74;1945;-68
2021/09/25 00:33:16;;;;;;;;;;;23.30;50.00;;;;;;1588817;74;750;-68
2021/09/25 00:35:18;;;;;;;;;;;23.20;49.90;;;;;;1584594;74;652;-68
2021/09/25 00:37:19;;;;;;;;;;;23.30;50.00;;;;;;1591308;74;703;-68
2021/09/25 00:39:21;;;;;;;;;;;23.20;50.00;;;;;;1591611;73;1183;-68
2021/09/25 00:41:23;;;;;;;;;;;23.30;50.00;;;;;;1590569;74;714;-68
2021/09/25 00:43:25;;;;;;;;;;;23.30;50.00;;;;;;1591468;74;702;-68
2021/09/25 00:45:27;;;;;;;;;;;23.30;50.00;;;;;;1590546;74;690;-68
2021/09/25 00:47:29;;;;;;;;;;;23.30;50.00;;;;;;1591552;74;667;-68
2021/09/25 00:49:31;;;;;;;;;;;23.30;49.90;;;;;;1590597;74;1195;-68
2021/09/25 00:51:33;;;;;;;;;;;23.30;49.90;;;;;;1592416;74;1937;-68
2021/09/25 00:53:35;;;;;;;;;;;23.30;49.90;;;;;;1592390;73;675;-68
2021/09/25 00:55:37;;;;;;;;;;;23.30;49.90;;;;;;1588409;74;733;-69
2021/09/25 00:57:39;;;;;;;;;;;23.30;49.90;;;;;;1590674;74;746;-68
2021/09/25 00:59:42;;;;;;;;;;;23.30;49.90;;;;;;1590453;74;1159;-68
2021/09/25 01:01:44;;;;;;;;;;;23.30;49.90;;;;;;1591697;74;643;-68
2021/09/25 01:03:46;;;;;;;;;;;23.30;49.90;;;;;;1591515;74;681;-68
2021/09/25 01:05:47;;;;;;;;;;;23.30;50.00;;;;;;1590743;74;737;-67
2021/09/25 01:07:49;;;;;;;;;;;23.30;50.00;;;;;;1592306;73;679;-68
2021/09/25 01:09:51;;;;;;;;;;;23.30;50.00;;;;;;1585183;74;1945;-68
2021/09/25 01:11:53;;;;;;;;;;;23.20;50.00;;;;;;1588749;74;724;-67
2021/09/25 01:13:55;;;;;;;;;;;23.30;50.00;;;;;;1589184;74;662;-67
2021/09/25 01:15:57;;;;;;;;;;;23.30;50.00;;;;;;1589548;74;599;-67
2021/09/25 01:17:59;;;;;;;;;;;23.30;50.00;;;;;;1590065;74;692;-68
2021/09/25 01:20:01;;;;;;;;;;;23.30;50.10;;;;;;1586736;74;1137;-68
2021/09/25 01:22:03;;;;;;;;;;;23.30;50.00;;;;;;1591075;74;705;-67
2021/09/25 01:24:05;;;;;;;;;;;23.30;50.00;;;;;;1579171;74;656;-67
2021/09/25 01:26:07;;;;;;;;;;;23.20;49.90;;;;;;1584193;74;750;-67
2021/09/25 01:28:09;;;;;;;;;;;23.30;49.90;;;;;;1586750;74;644;-67
2021/09/25 01:30:12;;;;;;;;;;;23.20;49.80;;;;;;1589645;73;1973;-67
2021/09/25 01:32:13;;;;;;;;;;;23.20;49.80;;;;;;1591732;74;749;-68
2021/09/25 01:34:15;;;;;;;;;;;23.30;49.90;;;;;;1592142;73;740;-73
2021/09/25 01:36:17;;;;;;;;;;;23.30;49.90;;;;;;1589870;74;671;-67
2021/09/25 01:38:19;;;;;;;;;;;23.30;49.90;;;;;;1590865;74;729;-68
2021/09/25 01:40:21;;;;;;;;;;;23.20;49.70;;;;;;1589657;74;1165;-67
2021/09/25 01:42:23;;;;;;;;;;;23.20;49.80;;;;;;1589335;74;782;-68
2021/09/25 01:44:26;;;;;;;;;;;23.30;50.00;;;;;;1588129;74;710;-68
2021/09/25 01:46:28;;;;;;;;;;;23.20;49.90;;;;;;1587525;74;697;-68
2021/09/25 01:48:30;;;;;;;;;;;23.20;49.90;;;;;;1591474;74;682;-68
2021/09/25 01:50:32;;;;;;;;;;;23.20;50.00;;;;;;1589551;73;1945;-69
2021/09/25 01:52:34;;;;;;;;;;;23.30;50.00;;;;;;1589805;73;787;-69
2021/09/25 01:54:36;;;;;;;;;;;23.20;50.00;;;;;;1587589;74;714;-70
2021/09/25 01:56:39;;;;;;;;;;;23.20;50.10;;;;;;1590802;74;691;-69
2021/09/25 01:58:41;;;;;;;;;;;23.30;50.20;;;;;;1587318;74;745;-69
2021/09/25 02:00:43;;;;;;;;;;;23.30;50.20;;;;;;1588404;74;1109;-69
2021/09/25 02:02:45;;;;;;;;;;;23.30;50.20;;;;;;1590409;74;741;-69
2021/09/25 02:04:47;;;;;;;;;;;23.30;50.30;;;;;;1590834;74;717;-70
2021/09/25 02:06:49;;;;;;;;;;;23.30;50.40;;;;;;1588627;74;726;-69
2021/09/25 02:08:50;;;;;;;;;;;23.30;50.40;;;;;;1592025;74;1141;-69
2021/09/25 02:10:52;;;;;;;;;;;23.20;50.40;;;;;;1590772;74;1945;-70
2021/09/25 02:12:54;;;;;;;;;;;23.20;50.40;;;;;;1591261;74;710;-68
2021/09/25 02:14:56;;;;;;;;;;;23.20;50.40;;;;;;1589496;74;580;-69
2021/09/25 02:16:58;;;;;;;;;;;23.20;50.40;;;;;;1591738;74;859;-69
2021/09/25 02:19:00;;;;;;;;;;;23.20;50.50;;;;;;1587461;74;1113;-70
2021/09/25 02:21:02;;;;;;;;;;;23.20;50.50;;;;;;1591232;73;1071;-69
2021/09/25 02:23:04;;;;;;;;;;;23.20;50.40;;;;;;1588781;74;862;-69
2021/09/25 02:25:06;;;;;;;;;;;23.20;50.50;;;;;;1588867;74;718;-69
2021/09/25 02:27:08;;;;;;;;;;;23.20;50.50;;;;;;1592169;74;779;-69
2021/09/25 02:29:10;;;;;;;;;;;23.30;50.50;;;;;;1587022;74;1238;-69
2021/09/25 02:31:12;;;;;;;;;;;23.30;50.50;;;;;;1588005;74;1946;-68
2021/09/25 02:33:14;;;;;;;;;;;23.20;50.50;;;;;;1589506;74;685;-69
2021/09/25 02:35:16;;;;;;;;;;;23.20;50.60;;;;;;1586301;74;705;-69
2021/09/25 02:37:18;;;;;;;;;;;23.20;50.60;;;;;;1587655;74;675;-70
2021/09/25 02:39:20;;;;;;;;;;;23.20;50.60;;;;;;1592022;74;1177;-69
2021/09/25 02:41:22;;;;;;;;;;;23.20;50.60;;;;;;1588771;74;702;-68
2021/09/25 02:43:24;;;;;;;;;;;23.20;50.70;;;;;;1587464;74;725;-69
2021/09/25 02:45:26;;;;;;;;;;;23.20;50.70;;;;;;1590272;74;689;-69
2021/09/25 02:47:28;;;;;;;;;;;23.20;50.70;;;;;;1592005;74;705;-69
2021/09/25 02:49:29;;;;;;;;;;;23.20;50.70;;;;;;1589489;74;1140;-69
2021/09/25 02:51:31;;;;;;;;;;;23.20;50.70;;;;;;1592326;74;1931;-69
2021/09/25 02:53:33;;;;;;;;;;;23.20;50.60;;;;;;1590030;74;668;-69
2021/09/25 02:55:35;;;;;;;;;;;23.20;50.60;;;;;;1588673;74;623;-68
2021/09/25 02:57:37;;;;;;;;;;;23.20;50.60;;;;;;1589333;74;722;-69
2021/09/25 02:59:39;;;;;;;;;;;23.20;50.70;;;;;;1588075;74;1164;-69
2021/09/25 03:01:41;;;;;;;;;;;23.20;50.60;;;;;;1591618;74;706;-67
2021/09/25 03:03:43;;;;;;;;;;;23.20;50.60;;;;;;1590485;74;703;-70
2021/09/25 03:05:44;;;;;;;;;;;23.20;50.60;;;;;;1589862;74;781;-69
2021/09/25 03:07:46;;;;;;;;;;;23.30;50.70;;;;;;1591228;74;721;-69
2021/09/25 03:09:49;;;;;;;;;;;23.30;50.70;;;;;;1590986;73;1113;-69
2021/09/25 03:11:51;;;;;;;;;;;23.20;50.60;;;;;;1588359;74;1917;-69
2021/09/25 03:13:53;;;;;;;;;;;23.20;50.70;;;;;;1589928;74;723;-69
2021/09/25 03:15:55;;;;;;;;;;;23.20;50.70;;;;;;1592648;73;669;-69
2021/09/25 03:17:56;;;;;;;;;;;23.20;50.70;;;;;;1589992;74;666;-70
2021/09/25 03:19:58;;;;;;;;;;;23.20;50.60;;;;;;1589005;74;1099;-70
2021/09/25 03:22:00;;;;;;;;;;;23.20;50.70;;;;;;1589359;74;634;-70
2021/09/25 03:24:02;;;;;;;;;;;23.20;50.70;;;;;;1590961;74;705;-69
2021/09/25 03:26:04;;;;;;;;;;;23.20;50.70;;;;;;1591431;74;780;-70
2021/09/25 03:28:06;;;;;;;;;;;23.20;50.70;;;;;;1592263;74;714;-69
2021/09/25 03:30:09;;;;;;;;;;;23.30;50.80;;;;;;1588031;74;1160;-69
2021/09/25 03:32:10;;;;;;;;;;;23.20;50.70;;;;;;1588240;74;1929;-70
2021/09/25 03:34:14;;;;;;;;;;;23.20;50.70;;;;;;1590547;74;808;-69
2021/09/25 03:36:16;;;;;;;;;;;23.20;50.80;;;;;;1592045;74;753;-69
2021/09/25 03:38:21;;;;;;;;;;;23.20;50.80;;;;;;1592366;74;697;-69
2021/09/25 03:40:21;;;;;;;;;;;23.20;50.80;;;;;;1587449;74;1172;-68
2021/09/25 03:42:23;;;;;;;;;;;23.30;51.00;;;;;;1587371;74;733;-69
2021/09/25 03:44:25;;;;;;;;;;;23.20;51.00;;;;;;1591890;73;744;-69
2021/09/25 03:46:27;;;;;;;;;;;23.30;51.20;;;;;;1592646;74;779;-70
2021/09/25 03:48:29;;;;;;;;;;;23.30;51.30;;;;;;1588741;74;695;-69
2021/09/25 03:50:31;;;;;;;;;;;23.30;51.30;;;;;;1587774;74;1069;-70
2021/09/25 03:52:33;;;;;;;;;;;23.30;51.20;;;;;;1591319;74;1926;-69
2021/09/25 03:54:35;;;;;;;;;;;23.30;51.20;;;;;;1587177;74;712;-69
2021/09/25 03:56:37;;;;;;;;;;;23.20;51.20;;;;;;1587107;74;703;-69
2021/09/25 03:58:39;;;;;;;;;;;23.20;51.20;;;;;;1589853;74;742;-69
2021/09/25 04:00:44;;;;;;;;;;;23.20;51.20;;;;;;1591596;74;1112;-69
2021/09/25 04:02:46;;;;;;;;;;;23.20;51.30;;;;;;1588632;74;768;-69
2021/09/25 04:04:47;;;;;;;;;;;23.20;51.20;;;;;;1588583;74;644;-69
2021/09/25 04:06:49;;;;;;;;;;;23.20;51.20;;;;;;1592786;74;709;-69
2021/09/25 04:08:51;;;;;;;;;;;23.20;51.20;;;;;;1589516;74;1159;-68
2021/09/25 04:10:53;;;;;;;;;;;23.20;51.20;;;;;;1587288;74;710;-69
2021/09/25 04:12:55;;;;;;;;;;;23.30;51.40;;;;;;1584372;74;1934;-70
2021/09/25 04:14:57;;;;;;;;;;;23.30;51.30;;;;;;1590094;74;788;-69
2021/09/25 04:16:59;;;;;;;;;;;23.20;51.30;;;;;;1592921;74;703;-70
2021/09/25 04:19:01;;;;;;;;;;;23.20;51.30;;;;;;1589621;74;1101;-69
2021/09/25 04:21:02;;;;;;;;;;;23.20;51.30;;;;;;1591617;74;719;-69
2021/09/25 04:23:04;;;;;;;;;;;23.30;51.40;;;;;;1592536;74;656;-70
2021/09/25 04:25:06;;;;;;;;;;;23.20;51.20;;;;;;1587080;74;731;-70
2021/09/25 04:27:09;;;;;;;;;;;23.30;51.30;;;;;;1592047;74;698;-71
2021/09/25 04:29:11;;;;;;;;;;;23.20;51.10;;;;;;1589156;74;1144;-70
2021/09/25 04:31:13;;;;;;;;;;;23.20;51.10;;;;;;1592099;73;1937;-70
2021/09/25 04:33:15;;;;;;;;;;;23.20;51.00;;;;;;1591268;74;744;-69
2021/09/25 04:35:18;;;;;;;;;;;23.20;51.10;;;;;;1590650;74;755;-69
2021/09/25 04:37:20;;;;;;;;;;;23.20;51.20;;;;;;1588012;74;721;-71
2021/09/25 04:39:21;;;;;;;;;;;23.30;51.40;;;;;;1591947;74;1157;-70
2021/09/25 04:41:23;;;;;;;;;;;23.20;51.40;;;;;;1588432;74;725;-70
2021/09/25 04:43:25;;;;;;;;;;;23.30;51.50;;;;;;1589437;74;666;-69
2021/09/25 04:45:27;;;;;;;;;;;23.30;51.60;;;;;;1591718;74;754;-70
2021/09/25 04:47:29;;;;;;;;;;;23.30;51.50;;;;;;1589757;74;698;-71
2021/09/25 04:49:31;;;;;;;;;;;23.30;51.70;;;;;;1588630;74;1177;-69
2021/09/25 04:51:33;;;;;;;;;;;23.30;51.20;;;;;;1593584;74;1919;-69
2021/09/25 04:53:35;;;;;;;;;;;23.30;51.10;;;;;;1589694;74;838;-70
2021/09/25 04:55:36;;;;;;;;;;;23.20;51.00;;;;;;1591260;74;714;-70
2021/09/25 04:57:38;;;;;;;;;;;23.20;51.00;;;;;;1587841;74;718;-69
2021/09/25 04:59:40;;;;;;;;;;;23.20;51.10;;;;;;1591943;74;1143;-70
2021/09/25 05:01:42;;;;;;;;;;;23.20;51.30;;;;;;1590095;74;718;-71
2021/09/25 05:03:44;;;;;;;;;;;23.20;51.30;;;;;;1590418;74;745;-70
2021/09/25 05:05:46;;;;;;;;;;;23.30;51.40;;;;;;1594080;74;784;-69
2021/09/25 05:07:48;;;;;;;;;;;23.30;51.50;;;;;;1592423;74;725;-71
2021/09/25 05:09:50;;;;;;;;;;;23.20;51.60;;;;;;1589049;74;1133;-71
2021/09/25 05:11:51;;;;;;;;;;;23.20;51.40;;;;;;1588185;74;1933;-72
2021/09/25 05:13:53;;;;;;;;;;;23.20;51.20;;;;;;1587706;74;706;-71
2021/09/25 05:15:55;;;;;;;;;;;23.20;51.00;;;;;;1588712;74;846;-71
2021/09/25 05:17:57;;;;;;;;;;;23.20;50.90;;;;;;1587365;74;888;-71
2021/09/25 05:19:59;;;;;;;;;;;23.20;50.70;;;;;;1589739;74;1125;-72
2021/09/25 05:22:01;;;;;;;;;;;23.20;50.40;;;;;;1593111;74;686;-71
2021/09/25 05:24:03;;;;;;;;;;;23.20;50.40;;;;;;1590021;74;708;-75
2021/09/25 05:26:05;;;;;;;;;;;23.20;50.20;;;;;;1588483;74;709;-73
2021/09/25 05:28:07;;;;;;;;;;;23.20;50.30;;;;;;1588855;74;683;-77
2021/09/25 05:30:09;;;;;;;;;;;23.20;50.10;;;;;;1588543;74;1094;-79
2021/09/25 05:32:11;;;;;;;;;;;23.20;50.10;;;;;;1589137;74;1926;-70
2021/09/25 05:34:13;;;;;;;;;;;23.10;50.00;;;;;;1589846;74;660;-77
2021/09/25 05:36:15;;;;;;;;;;;23.20;50.20;;;;;;1590268;74;638;-72
2021/09/25 05:38:17;;;;;;;;;;;23.20;50.40;;;;;;1589211;74;698;-77
2021/09/25 05:40:19;;;;;;;;;;;23.30;50.80;;;;;;1589675;74;1199;-73
2021/09/25 05:42:25;;;;;;;;;;;23.20;51.00;;;;;;1588525;74;738;-71
2021/09/25 05:44:27;;;;;;;;;;;23.40;51.00;;;;;;1588455;74;726;-70
2021/09/25 05:46:28;;;;;;;;;;;23.30;51.00;;;;;;1588750;74;711;-72
2021/09/25 05:48:32;;;;;;;;;;;23.30;51.00;;;;;;1592765;74;729;-76
2021/09/25 05:50:34;;;;;;;;;;;23.40;50.70;;;;;;1590534;73;1414;-71
2021/09/25 05:52:36;;;;;;;;;;;23.30;50.20;;;;;;1588016;74;1929;-70
2021/09/25 05:54:38;;;;;;;;;;;23.30;49.50;;;;;;1588992;74;739;-71
2021/09/25 05:56:40;;;;;;;;;;;23.20;48.80;;;;;;1590614;74;538;-73
2021/09/25 05:58:42;;;;;;;;;;;23.20;48.40;;;;;;1589250;74;745;-72
2021/09/25 06:00:43;;;;;;;;;;;23.20;48.10;;;;;;1590120;74;1076;-72
2021/09/25 06:02:45;;;;;;;;;;;23.10;47.80;;;;;;1590309;73;735;-71
2021/09/25 06:04:47;;;;;;;;;;;23.10;47.60;;;;;;1588837;74;738;-72
2021/09/25 06:06:49;;;;;;;;;;;23.00;47.30;;;;;;1588902;74;779;-72
2021/09/25 06:08:51;;;;;;;;;;;23.00;47.10;;;;;;1589942;73;1119;-72
2021/09/25 06:10:53;;;;;;;;;;;22.90;47.00;;;;;;1591035;74;781;-73
2021/09/25 06:12:55;;;;;;;;;;;23.00;46.90;;;;;;1589224;74;1949;-72
2021/09/25 06:14:57;;;;;;;;;;;22.90;46.80;;;;;;1589716;74;734;-72
2021/09/25 06:16:58;;;;;;;;;;;22.90;46.70;;;;;;1588916;74;721;-72
2021/09/25 06:19:00;;;;;;;;;;;22.80;46.50;;;;;;1593901;73;1159;-72
2021/09/25 06:21:02;;;;;;;;;;;22.80;46.50;;;;;;1592853;74;776;-72
2021/09/25 06:23:04;;;;;;;;;;;22.80;46.50;;;;;;1591761;74;717;-71
2021/09/25 06:25:06;;;;;;;;;;;22.70;46.40;;;;;;1590479;74;731;-70
2021/09/25 06:27:08;;;;;;;;;;;22.70;46.40;;;;;;1593319;74;936;-71
2021/09/25 06:29:10;;;;;;;;;;;22.70;46.40;;;;;;1587255;74;1153;-70
2021/09/25 06:31:12;;;;;;;;;;;22.70;46.30;;;;;;1591604;74;721;-69
2021/09/25 06:33:14;;;;;;;;;;;22.70;46.30;;;;;;1590772;74;1927;-69
2021/09/25 06:35:16;;;;;;;;;;;22.70;46.30;;;;;;1580540;74;721;-71
2021/09/25 06:37:18;;;;;;;;;;;22.70;46.30;;;;;;1589144;74;702;-71
2021/09/25 06:39:22;;;;;;;;;;;22.60;46.20;;;;;;1590467;73;1145;-71
2021/09/25 06:41:23;;;;;;;;;;;22.60;46.20;;;;;;1591768;74;1073;-72
2021/09/25 06:43:25;;;;;;;;;;;22.60;46.20;;;;;;1589461;74;741;-71
2021/09/25 06:45:32;;;;;;;;;;;22.60;46.20;;;;;;1592149;74;695;-72
2021/09/25 06:47:31;;;;;;;;;;;22.60;46.30;;;;;;1590716;74;1105;-70
2021/09/25 06:49:33;;;;;;;;;;;22.60;46.30;;;;;;1590081;74;1172;-71
2021/09/25 06:51:34;;;;;;;;;;;22.50;46.30;;;;;;1587814;74;749;-71
2021/09/25 06:53:36;;;;;;;;;;;22.50;46.30;;;;;;1588316;74;1935;-71
2021/09/25 06:55:57;;;;;;;;;;;22.50;46.30;;;;;;1591864;74;620;-71
2021/09/25 06:57:59;;;;;;;;;;;22.50;46.40;;;;;;1617807;73;678;-54
2021/09/25 07:00:01;;;;;;;;;;;22.50;46.40;;;;;;1621324;73;772;-57
2021/09/25 07:02:03;;;;;;;;;;;22.50;46.50;;;;;;1612867;73;790;-53
2021/09/25 07:04:05;;;;;;;;;;;22.50;46.50;;;;;;1609819;72;1190;-56
2021/09/25 07:06:07;;;;;;;;;;;22.50;46.50;;;;;;1593437;73;694;-56
2021/09/25 07:08:09;;;;;;;;;;;22.50;46.50;;;;;;1593163;74;766;-56
2021/09/25 07:10:11;;;;;;;;;;;22.50;46.60;;;;;;1593112;73;679;-57
2021/09/25 07:12:13;;;;;;;;;;;22.50;46.60;;;;;;1592752;74;1910;-56
2021/09/25 07:14:15;;;;;;;;;;;22.50;46.60;;;;;;1592025;73;1134;-56
2021/09/25 07:16:17;;;;;;;;;;;22.50;46.70;;;;;;1587185;74;702;-55
2021/09/25 07:18:20;;;;;;;;;;;22.50;46.80;;;;;;1593366;74;762;-54
2021/09/25 07:20:22;;;;;;;;;;;22.60;46.80;;;;;;1591836;73;732;-55
2021/09/25 07:22:24;;;;;;;;;;;22.50;46.90;;;;;;1592927;73;803;-56
2021/09/25 07:24:25;;;;;;;;;;;22.50;47.00;;;;;;1593334;73;1079;-55
2021/09/25 07:26:27;;;;;;;;;;;22.60;47.00;;;;;;1593127;74;758;-54
2021/09/25 07:28:29;;;;;;;;;;;22.70;47.10;;;;;;1593401;74;740;-52
2021/09/25 07:30:31;;;;;;;;;;;22.70;47.20;;;;;;1593550;73;804;-56
2021/09/25 07:32:33;;;;;;;;;;;22.70;47.20;;;;;;1592985;74;1919;-56
2021/09/25 07:34:35;;;;;;;;;;;22.80;47.20;;;;;;1593251;73;1113;-56
2021/09/25 07:36:37;;;;;;;;;;;22.90;47.20;;;;;;1592917;74;795;-55
2021/09/25 07:38:39;;;;;;;;;;;22.90;47.20;;;;;;1594496;73;665;-55
2021/09/25 07:40:41;;;;;;;;;;;23.00;47.20;;;;;;1565164;75;783;-57
2021/09/25 07:42:43;;;;;;;;;;;23.10;47.30;;;;;;1567350;76;629;-55
2021/09/25 07:44:44;;;;;;;;;;;23.10;47.30;;;;;;1575805;74;1187;-54
2021/09/25 07:46:46;;;;;;;;;;;23.10;47.20;;;;;;1586630;74;740;-54
2021/09/25 07:48:48;;;;;;;;;;;23.20;47.00;;;;;;1579724;74;753;-56
2021/09/25 07:50:50;;;;;;;;;;;23.30;46.90;;;;;;1582111;74;714;-56
2021/09/25 07:52:55;;;;;;;;;;;23.30;46.90;;;;;;1579125;74;1933;-56
2021/09/25 07:54:56;;;;;;;;;;;23.30;46.80;;;;;;1577338;74;1142;-54
2021/09/25 07:56:57;;;;;;;;;;;23.40;46.80;;;;;;1566393;75;793;-54
2021/09/25 07:58:59;;;;;;;;;;;23.40;46.70;;;;;;1566384;75;708;-54
2021/09/25 08:01:02;;;;;;;;;;;23.40;46.30;;;;;;1571103;76;704;-54
2021/09/25 08:03:04;;;;;;;;;;;23.50;46.30;;;;;;1583567;75;726;-57
2021/09/25 08:05:06;;;;;;;;;;;23.50;46.30;;;;;;1589627;73;1146;-56
2021/09/25 08:07:08;;;;;;;;;;;23.50;46.00;;;;;;1589995;73;824;-56
2021/09/25 08:09:10;;;;;;;;;;;23.60;45.80;;;;;;1589672;73;776;-54
2021/09/25 08:11:12;;;;;;;;;;;23.50;45.80;;;;;;1589097;73;786;-57
2021/09/25 08:13:14;;;;;;;;;;;23.60;45.80;;;;;;1590012;75;1945;-58
2021/09/25 08:15:16;;;;;;;;;;;23.60;45.80;;;;;;1577502;73;1097;-57
2021/09/25 08:17:18;;;;;;;;;;;23.60;45.90;;;;;;1590042;73;862;-57
2021/09/25 08:19:19;;;;;;;;;;;23.60;45.70;;;;;;1590184;75;774;-57
2021/09/25 08:21:21;;;;;;;;;;;23.70;45.70;;;;;;1589766;75;781;-55
2021/09/25 08:23:23;;;;;;;;;;;23.70;45.60;;;;;;1589259;75;671;-55
2021/09/25 08:25:25;;;;;;;;;;;23.70;45.40;;;;;;1590161;73;1162;-56
2021/09/25 08:27:27;;;;;;;;;;;23.70;45.60;;;;;;1585957;75;753;-54
2021/09/25 08:29:29;;;;;;;;;;;23.70;45.70;;;;;;1565140;76;784;-57
2021/09/25 08:31:31;;;;;;;;;;;23.60;45.60;;;;;;1580578;74;822;-57
2021/09/25 08:33:33;;;;;;;;;;;23.70;45.90;;;;;;1568341;75;1942;-57
2021/09/25 08:35:34;;;;;;;;;;;23.60;45.70;;;;;;1582516;73;761;-56
2021/09/25 08:37:36;;;;;;;;;;;23.60;46.20;;;;;;1587624;75;754;-56
2021/09/25 08:39:38;;;;;;;;;;;23.60;46.10;;;;;;1586400;73;774;-55
2021/09/25 08:41:41;;;;;;;;;;;23.60;46.10;;;;;;1589761;73;704;-55
2021/09/25 08:43:43;;;;;;;;;;;23.60;46.30;;;;;;1583828;74;1153;-54
2021/09/25 08:45:51;;;;;;;;;;;23.60;46.10;;;;;;1568697;76;770;-56
2021/09/25 08:47:48;;;;;;;;;;;23.60;46.30;;;;;;1565701;75;1607;-54
2021/09/25 08:49:50;;;;;;;;;;;23.60;46.30;;;;;;1566787;75;732;-56
2021/09/25 08:51:52;;;;;;;;;;;23.60;46.00;;;;;;1567042;75;713;-56
2021/09/25 08:53:54;;;;;;;;;;;23.70;46.10;;;;;;1566857;75;1946;-56
2021/09/25 08:55:56;;;;;;;;;;;23.80;46.10;;;;;;1566946;75;786;-56
2021/09/25 08:57:58;;;;;;;;;;;23.70;46.10;;;;;;1566897;76;713;-57
2021/09/25 09:00:18;;;;;;;;;;;23.70;46.00;;;;;;1584903;75;695;-56
2021/09/25 09:02:20;;;;;;;;;;;23.80;45.90;;;;;;1577162;73;694;-56
2021/09/25 09:04:22;;;;;;;;;;;23.80;45.80;;;;;;1590030;73;1161;-57
2021/09/25 09:06:28;;;;;;;;;;;23.80;45.60;;;;;;1590137;74;784;-56
2021/09/25 09:08:30;;;;;;;;;;;23.90;45.30;;;;;;1587594;75;757;-54
2021/09/25 09:10:35;;;;;;;;;;;23.90;45.10;;;;;;1569055;76;836;-52
2021/09/25 09:12:37;;;;;;;;;;;23.90;45.10;;;;;;1566539;75;679;-58
2021/09/25 09:14:42;;;;;;;;;;;23.90;44.20;;;;;;1566789;75;1938;-57
2021/09/25 09:16:57;;;;;;;;;;;23.80;44.70;;;;;;1567114;75;799;-56
2021/09/25 09:18:59;;;;;;;;;;;23.80;44.80;;;;;;1565240;76;679;-57
2021/09/25 09:21:03;;;;;;;;;;;23.90;44.90;;;;;;1557880;75;679;-57
2021/09/25 09:23:16;;;;;;;;;;;23.90;44.90;;;;;;1539730;76;742;-57
2021/09/25 09:25:19;;;;;;;;;;;23.90;44.60;;;;;;1539768;75;1831;-57
2021/09/25 09:27:22;;;;;;;;;;;23.80;44.30;;;;;;1582714;75;768;-58
2021/09/25 09:29:24;;;;;;;;;;;23.70;44.40;;;;;;1585320;73;746;-57
2021/09/25 09:31:26;;;;;;;;;;;23.80;44.70;;;;;;1540646;75;975;-57
2021/09/25 09:33:29;;;;;;;;;;;23.70;44.30;;;;;;1566371;74;1935;-58
2021/09/25 09:35:31;;;;;;;;;;;23.70;44.60;;;;;;1589460;73;728;-57
2021/09/25 09:37:33;;;;;;;;;;;23.80;44.60;;;;;;1589533;73;692;-57
2021/09/25 09:39:35;;;;;;;;;;;23.70;44.70;;;;;;1590134;73;744;-58
2021/09/25 09:41:37;;;;;;;;;;;23.80;44.50;;;;;;1589394;75;716;-58
2021/09/25 09:43:39;;;;;;;;;;;23.80;44.40;;;;;;1589906;73;1126;-59
2021/09/25 09:45:41;;;;;;;;;;;23.80;44.50;;;;;;1563251;75;625;-58
2021/09/25 09:47:44;;;;;;;;;;;23.70;43.70;;;;;;1566513;75;715;-57
2021/09/25 09:49:46;;;;;;;;;;;23.70;44.20;;;;;;1539211;75;730;-57
2021/09/25 09:51:50;;;;;;;;;;;23.70;44.30;;;;;;1588912;75;716;-57
2021/09/25 09:53:55;;;;;;;;;;;23.70;44.30;;;;;;1589403;73;1943;-58
2021/09/25 09:55:57;;;;;;;;;;;23.70;44.30;;;;;;1589877;75;1441;-57
2021/09/25 09:58:02;;;;;;;;;;;23.70;44.20;;;;;;1586421;73;2067;-55
2021/09/25 10:00:04;;;;;;;;;;;23.70;44.30;;;;;;1589998;75;661;-57
2021/09/25 10:02:06;;;;;;;;;;;23.70;44.40;;;;;;1589944;75;764;-58
2021/09/25 10:04:08;;;;;;;;;;;23.70;44.40;;;;;;1589455;73;1142;-59
2021/09/25 10:06:10;;;;;;;;;;;23.80;44.30;;;;;;1589912;73;697;-58
2021/09/25 10:08:12;;;;;;;;;;;23.70;44.40;;;;;;1591712;73;778;-58
2021/09/25 10:10:14;;;;;;;;;;;23.80;44.40;;;;;;1592747;73;701;-57
2021/09/25 10:12:16;;;;;;;;;;;23.70;43.80;;;;;;1591912;73;725;-54
2021/09/25 10:14:19;;;;;;;;;;;23.70;44.20;;;;;;1591797;73;1907;-55
2021/09/25 10:16:21;;;;;;;;;;;23.70;44.30;;;;;;1592097;73;774;-58
2021/09/25 10:18:23;;;;;;;;;;;23.70;44.20;;;;;;1588467;74;1462;-58
2021/09/25 10:20:24;;;;;;;;;;;23.80;44.20;;;;;;1593684;73;724;-58
2021/09/25 10:22:30;;;;;;;;;;;23.70;44.40;;;;;;1591488;73;692;-56
2021/09/25 10:24:42;;;;;;;;;;;23.80;44.40;;;;;;1592516;74;1139;-58
2021/09/25 10:26:45;;;;;;;;;;;23.70;44.30;;;;;;1592992;73;687;-56
2021/09/25 10:28:53;;;;;;;;;;;23.80;44.40;;;;;;1592306;73;776;-55
2021/09/25 10:30:55;;;;;;;;;;;23.70;44.40;;;;;;1592868;73;808;-56
2021/09/25 10:32:57;;;;;;;;;;;23.80;44.40;;;;;;1590861;73;729;-54
2021/09/25 10:35:12;;;;;;;;;;;23.70;44.20;;;;;;1592687;73;1949;-58
2021/09/25 10:37:14;;;;;;;;;;;23.70;44.50;;;;;;1587257;73;811;-58
2021/09/25 10:39:16;;;;;;;;;;;23.70;44.50;;;;;;1569672;75;1416;-58
2021/09/25 10:41:19;;;;;;;;;;;23.80;44.60;;;;;;1593342;74;684;-57
2021/09/25 10:43:23;;;;;;;;;;;23.80;44.60;;;;;;1593145;74;789;-56
2021/09/25 10:45:34;;;;;;;;;;;23.80;44.30;;;;;;1593301;73;1142;-57
2021/09/25 10:47:36;;;;;;;;;;;23.70;44.40;;;;;;1593704;73;726;-55
2021/09/25 10:49:48;;;;;;;;;;;23.70;44.30;;;;;;1592810;73;706;-56
2021/09/25 10:51:51;;;;;;;;;;;23.70;44.40;;;;;;1592406;73;823;-56
2021/09/25 10:53:53;;;;;;;;;;;23.70;44.60;;;;;;1592460;73;1903;-58
2021/09/25 10:55:57;;;;;;;;;;;23.80;44.60;;;;;;1569954;74;1032;-58
2021/09/25 10:58:15;;;;;;;;;;;23.70;44.60;;;;;;1589700;74;781;-55
2021/09/25 11:00:24;;;;;;;;;;;23.70;44.60;;;;;;1593235;74;740;-55
2021/09/25 11:02:27;;;;;;;;;;;23.70;44.70;;;;;;1593000;74;633;-56
2021/09/25 11:04:31;;;;;;;;;;;23.70;44.70;;;;;;1584895;73;1484;-57
2021/09/25 11:06:39;;;;;;;;;;;23.70;44.80;;;;;;1593610;73;1873;-58
2021/09/25 11:08:49;;;;;;;;;;;23.70;44.90;;;;;;1592304;73;827;-57
2021/09/25 11:11:04;;;;;;;;;;;23.60;44.80;;;;;;1589929;74;1851;-55
2021/09/25 11:13:06;;;;;;;;;;;23.60;44.90;;;;;;1592737;74;718;-56
2021/09/25 11:15:09;;;;;;;;;;;23.60;44.90;;;;;;1593242;73;1945;-55
2021/09/25 11:17:23;;;;;;;;;;;23.60;44.90;;;;;;1585105;73;1729;-57
2021/09/25 11:19:26;;;;;;;;;;;23.60;45.00;;;;;;1581401;74;726;-58
2021/09/25 11:21:29;;;;;;;;;;;23.60;45.00;;;;;;1593345;74;766;-57
2021/09/25 11:23:46;;;;;;;;;;;23.50;45.00;;;;;;1594051;73;1136;-54
2021/09/25 11:25:51;;;;;;;;;;;23.60;45.00;;;;;;1588920;74;735;-57
2021/09/25 11:27:54;;;;;;;;;;;23.60;45.10;;;;;;1592862;74;772;-56
2021/09/25 11:29:57;;;;;;;;;;;23.50;45.20;;;;;;1593007;74;695;-55
2021/09/25 11:32:03;;;;;;;;;;;23.50;45.20;;;;;;1593182;74;746;-57
2021/09/25 11:34:22;;;;;;;;;;;23.60;45.10;;;;;;1592419;73;1960;-57
2021/09/25 11:36:24;;;;;;;;;;;23.50;45.20;;;;;;1587760;73;1155;-58
2021/09/25 11:38:25;;;;;;;;;;;23.50;45.20;;;;;;1591757;73;794;-58
2021/09/25 11:40:28;;;;;;;;;;;23.50;45.20;;;;;;1592206;73;727;-57
2021/09/25 11:42:31;;;;;;;;;;;23.50;45.20;;;;;;1592554;73;740;-57
2021/09/25 11:44:46;;;;;;;;;;;23.50;45.30;;;;;;1550869;74;1211;-58
2021/09/25 11:46:49;;;;;;;;;;;23.50;45.30;;;;;;1553075;74;787;-57
2021/09/25 11:48:53;;;;;;;;;;;23.50;45.30;;;;;;1549243;74;742;-58
2021/09/25 11:50:55;;;;;;;;;;;23.50;45.40;;;;;;1549750;74;1911;-58
2021/09/25 11:52:58;;;;;;;;;;;23.50;45.40;;;;;;1558101;75;877;-58
2021/09/25 11:55:00;;;;;;;;;;;23.50;45.40;;;;;;1539307;76;1963;-57
2021/09/25 11:57:02;;;;;;;;;;;23.50;45.40;;;;;;1562916;75;687;-57
2021/09/25 11:59:04;;;;;;;;;;;23.40;45.30;;;;;;1587331;75;789;-55
2021/09/25 12:01:06;;;;;;;;;;;23.50;45.50;;;;;;1590006;73;681;-56
2021/09/25 12:03:08;;;;;;;;;;;23.50;45.40;;;;;;1590270;74;766;-58
2021/09/25 12:05:12;;;;;;;;;;;23.50;45.50;;;;;;1592363;73;1147;-58
2021/09/25 12:07:14;;;;;;;;;;;23.50;45.50;;;;;;1584404;73;1939;-58
2021/09/25 12:09:16;;;;;;;;;;;23.50;45.50;;;;;;1579653;73;796;-57
2021/09/25 12:11:17;;;;;;;;;;;23.40;45.40;;;;;;1592974;74;749;-57